Time;durP1;ratioP1;P1;durP2;ratioP2;P2;SDS_P1;SDS_P2;PMS_P1;PMS_P2;Temp;Humidity;BMP_temperature;BMP_pressure;BME280_temperature;BME280_humidity;BME280_pressure;Samples;Min_cycle;Max_cycle;Signal;HPM_P1;HPM_P2
2024/01/31 00:00:09;;;;;;;;;;;;;;;-6.62;100.00;99263.35;110424;1238;59679;-60
2024/01/31 00:03:00;;;;;;;;;;;;;;;-6.62;100.00;99266.92;110351;1237;72425;-60
2024/01/31 00:05:29;;;;;;;;;;;;;;;-6.63;100.00;99265.53;110386;1240;69704;-59
2024/01/31 00:07:58;;;;;;;;;;;;;;;-6.65;100.00;99270.40;110390;1237;68313;-61
2024/01/31 00:10:27;;;;;;;;;;;;;;;-6.67;100.00;99271.04;110561;1239;59725;-61
2024/01/31 00:12:56;;;;;;;;;;;;;;;-6.67;100.00;99267.81;110421;1240;59672;-60
2024/01/31 00:15:25;;;;;;;;;;;;;;;-6.65;100.00;99268.38;110595;1241;71185;-61
2024/01/31 00:17:54;;;;;;;;;;;;;;;-6.63;100.00;99268.26;110496;1237;70381;-59
2024/01/31 00:20:24;;;;;;;;;;;;;;;-6.61;100.00;99268.63;110439;1240;69750;-61
2024/01/31 00:22:52;;;;;;;;;;;;;;;-6.61;100.00;99272.55;110402;1239;59738;-61
2024/01/31 00:25:21;;;;;;;;;;;;;;;-6.58;100.00;99276.17;110418;1240;59667;-61
2024/01/31 00:27:51;;;;;;;;;;;;;;;-6.57;100.00;99274.33;110498;1241;71782;-58
2024/01/31 00:30:19;;;;;;;;;;;;;;;-6.56;100.00;99276.39;110434;1239;69908;-58
2024/01/31 00:32:48;;;;;;;;;;;;;;;-6.53;100.00;99273.06;110413;1237;69225;-61
2024/01/31 00:35:17;;;;;;;;;;;;;;;-6.51;100.00;99273.45;110348;1242;59767;-60
2024/01/31 00:37:46;;;;;;;;;;;;;;;-6.50;100.00;99271.45;110339;1241;59697;-60
2024/01/31 00:40:15;;;;;;;;;;;;;;;-6.51;100.00;99268.90;110354;1240;72069;-60
2024/01/31 00:42:44;;;;;;;;;;;;;;;-6.50;100.00;99269.08;110354;1240;70042;-59
2024/01/31 00:45:14;;;;;;;;;;;;;;;-6.53;100.00;99267.15;110329;1240;68926;-58
2024/01/31 00:47:43;;;;;;;;;;;;;;;-6.58;100.00;99261.23;110345;1241;59673;-61
2024/01/31 00:50:12;;;;;;;;;;;;;;;-6.64;100.00;99255.17;110374;1238;59685;-61
2024/01/31 00:52:42;;;;;;;;;;;;;;;-6.67;100.00;99252.20;110395;1241;70860;-60
2024/01/31 00:55:11;;;;;;;;;;;;;;;-6.69;100.00;99250.64;110417;1240;69787;-61
2024/01/31 00:57:40;;;;;;;;;;;;;;;-6.72;100.00;99247.17;110463;1237;68881;-59
2024/01/31 01:00:11;;;;;;;;;;;;;;;-6.74;100.00;99245.95;110490;1241;59693;-60
2024/01/31 01:02:40;;;;;;;;;;;;;;;-6.76;100.00;99240.98;110434;1237;59748;-59
2024/01/31 01:05:10;;;;;;;;;;;;;;;-6.81;100.00;99239.48;110393;1237;71842;-60
2024/01/31 01:07:39;;;;;;;;;;;;;;;-6.87;100.00;99242.05;110437;1241;69939;-60
2024/01/31 01:10:12;;;;;;;;;;;;;;;-6.92;100.00;99242.27;110379;1242;69800;-58
2024/01/31 01:12:42;;;;;;;;;;;;;;;-6.96;100.00;99243.67;110393;1237;59739;-59
2024/01/31 01:15:11;;;;;;;;;;;;;;;-7.01;100.00;99244.58;110449;1239;59681;-59
2024/01/31 01:17:44;;;;;;;;;;;;;;;-7.05;100.00;99240.55;110468;1238;71955;-59
2024/01/31 01:20:13;;;;;;;;;;;;;;;-7.08;100.00;99242.02;110425;1241;69733;-59
2024/01/31 01:22:46;;;;;;;;;;;;;;;-7.11;100.00;99245.33;110353;1241;68886;-59
2024/01/31 01:25:16;;;;;;;;;;;;;;;-7.13;100.00;99242.86;110486;1238;59803;-59
2024/01/31 01:27:50;;;;;;;;;;;;;;;-7.16;100.00;99238.73;110474;1240;59661;-59
2024/01/31 01:30:20;;;;;;;;;;;;;;;-7.17;100.00;99236.16;110570;1237;71923;-60
2024/01/31 01:32:49;;;;;;;;;;;;;;;-7.17;100.00;99235.67;110429;1237;69199;-59
2024/01/31 01:35:17;;;;;;;;;;;;;;;-7.16;100.00;99233.31;110409;1237;70008;-59
2024/01/31 01:37:47;;;;;;;;;;;;;;;-7.16;100.00;99232.80;110502;1238;59738;-59
2024/01/31 01:40:16;;;;;;;;;;;;;;;-7.18;100.00;99226.48;110493;1241;59715;-61
2024/01/31 01:42:45;;;;;;;;;;;;;;;-7.24;100.00;99230.75;110516;1241;72288;-61
2024/01/31 01:45:14;;;;;;;;;;;;;;;-7.29;100.00;99226.70;110401;1240;69266;-61
2024/01/31 01:47:43;;;;;;;;;;;;;;;-7.33;100.00;99223.90;110341;1241;69853;-58
2024/01/31 01:50:12;;;;;;;;;;;;;;;-7.39;100.00;99219.98;110378;1240;59686;-58
2024/01/31 01:52:41;;;;;;;;;;;;;;;-7.44;100.00;99216.12;110340;1241;59679;-59
2024/01/31 01:55:11;;;;;;;;;;;;;;;-7.49;100.00;99212.27;110335;1238;69501;-58
2024/01/31 01:57:41;;;;;;;;;;;;;;;-7.53;100.00;99213.33;110389;1241;69773;-60
2024/01/31 02:00:10;;;;;;;;;;;;;;;-7.56;100.00;99212.08;110358;1240;69128;-59
2024/01/31 02:02:39;;;;;;;;;;;;;;;-7.59;100.00;99211.31;110363;1240;59713;-59
2024/01/31 02:05:09;;;;;;;;;;;;;;;-7.61;100.00;99211.94;110356;1239;59680;-58
2024/01/31 02:07:38;;;;;;;;;;;;;;;-7.62;100.00;99211.41;110359;1240;71253;-58
2024/01/31 02:10:07;;;;;;;;;;;;;;;-7.63;100.00;99208.66;110419;1237;68155;-59
2024/01/31 02:12:37;;;;;;;;;;;;;;;-7.62;100.00;99206.14;110422;1240;69738;-57
2024/01/31 02:15:06;;;;;;;;;;;;;;;-7.63;100.00;99203.08;110411;1237;59802;-59
2024/01/31 02:17:35;;;;;;;;;;;;;;;-7.64;100.00;99202.88;110395;1238;59782;-58
2024/01/31 02:20:04;;;;;;;;;;;;;;;-7.65;100.00;99202.84;110554;1240;71284;-59
2024/01/31 02:22:33;;;;;;;;;;;;;;;-7.66;100.00;99202.84;110416;1239;69350;-58
2024/01/31 02:25:02;;;;;;;;;;;;;;;-7.67;100.00;99198.73;110419;1240;69658;-58
2024/01/31 02:27:31;;;;;;;;;;;;;;;-7.66;100.00;99200.95;110413;1240;59745;-59
2024/01/31 02:29:59;;;;;;;;;;;;;;;-7.67;100.00;99203.14;110498;1240;59705;-59
2024/01/31 02:32:28;;;;;;;;;;;;;;;-7.69;100.00;99200.70;110493;1238;72017;-58
2024/01/31 02:34:57;;;;;;;;;;;;;;;-7.70;100.00;99197.98;110450;1240;69240;-57
2024/01/31 02:37:26;;;;;;;;;;;;;;;-7.72;100.00;99198.60;110365;1241;69843;-59
2024/01/31 02:39:55;;;;;;;;;;;;;;;-7.70;100.00;99199.00;110527;1241;59718;-59
2024/01/31 02:42:24;;;;;;;;;;;;;;;-7.70;100.00;99197.29;110443;1240;59670;-59
2024/01/31 02:44:53;;;;;;;;;;;;;;;-7.71;100.00;99196.95;110511;1240;70321;-59
2024/01/31 02:47:22;;;;;;;;;;;;;;;-7.73;100.00;99198.05;110411;1239;69240;-59
2024/01/31 02:49:51;;;;;;;;;;;;;;;-7.76;100.00;99194.60;110491;1240;69139;-59
2024/01/31 02:52:20;;;;;;;;;;;;;;;-7.78;100.00;99193.51;110507;1238;59724;-59
2024/01/31 02:54:51;;;;;;;;;;;;;;;-7.78;100.00;99191.98;110522;1238;59685;-59
2024/01/31 02:57:19;;;;;;;;;;;;;;;-7.79;100.00;99192.98;110478;1241;71184;-60
2024/01/31 02:59:48;;;;;;;;;;;;;;;-7.80;100.00;99191.42;110393;1240;69832;-60
2024/01/31 03:02:17;;;;;;;;;;;;;;;-7.82;100.00;99195.60;110341;1238;69686;-61
2024/01/31 03:04:46;;;;;;;;;;;;;;;-7.84;100.00;99192.49;110347;1241;59699;-61
2024/01/31 03:07:15;;;;;;;;;;;;;;;-7.84;100.00;99193.85;110379;1238;59677;-60
2024/01/31 03:09:45;;;;;;;;;;;;;;;-7.85;100.00;99194.65;110526;1241;71496;-59
2024/01/31 03:12:13;;;;;;;;;;;;;;;-7.86;100.00;99191.94;110358;1239;69289;-59
2024/01/31 03:14:43;;;;;;;;;;;;;;;-7.87;100.00;99193.27;110347;1241;69257;-60
2024/01/31 03:17:12;;;;;;;;;;;;;;;-7.88;100.00;99187.98;110384;1238;59874;-60
2024/01/31 03:19:41;;;;;;;;;;;;;;;-7.88;100.00;99189.33;110334;1241;59662;-59
2024/01/31 03:22:10;;;;;;;;;;;;;;;-7.90;100.00;99192.65;110362;1240;71818;-59
2024/01/31 03:24:39;;;;;;;;;;;;;;;-7.95;100.00;99186.59;110336;1239;69604;-59
2024/01/31 03:27:08;;;;;;;;;;;;;;;-8.00;100.00;99189.31;110374;1240;69271;-57
2024/01/31 03:29:37;;;;;;;;;;;;;;;-8.06;100.00;99189.48;110450;1240;59732;-58
2024/01/31 03:32:06;;;;;;;;;;;;;;;-8.09;100.00;99187.85;110253;1241;59688;-59
2024/01/31 03:34:34;;;;;;;;;;;;;;;-8.12;100.00;99184.73;110278;1240;71340;-58
2024/01/31 03:37:05;;;;;;;;;;;;;;;-8.12;100.00;99186.24;110286;1240;69234;-58
2024/01/31 03:39:34;;;;;;;;;;;;;;;-8.13;100.00;99179.80;110250;1240;69529;-59
2024/01/31 03:42:03;;;;;;;;;;;;;;;-8.10;100.00;99181.06;110254;1241;59720;-59
2024/01/31 03:44:32;;;;;;;;;;;;;;;-8.12;100.00;99179.50;110268;1241;59706;-58
2024/01/31 03:47:01;;;;;;;;;;;;;;;-8.13;100.00;99178.60;110277;1241;71947;-58
2024/01/31 03:49:30;;;;;;;;;;;;;;;-8.16;100.00;99180.21;110279;1241;69858;-58
2024/01/31 03:51:59;;;;;;;;;;;;;;;-8.17;100.00;99176.81;110306;1239;68746;-59
2024/01/31 03:54:28;;;;;;;;;;;;;;;-8.17;100.00;99174.77;110266;1241;59692;-59
2024/01/31 03:56:57;;;;;;;;;;;;;;;-8.20;100.00;99173.17;110401;1241;59694;-59
2024/01/31 03:59:27;;;;;;;;;;;;;;;-8.26;100.00;99173.17;110340;1238;71749;-59
2024/01/31 04:01:55;;;;;;;;;;;;;;;-8.32;100.00;99173.16;110353;1241;69085;-58
2024/01/31 04:04:26;;;;;;;;;;;;;;;-8.36;100.00;99174.41;110390;1240;69526;-59
2024/01/31 04:06:55;;;;;;;;;;;;;;;-8.37;100.00;99171.52;110378;1238;60124;-59
2024/01/31 04:09:24;;;;;;;;;;;;;;;-8.38;100.00;99168.26;110381;1241;59647;-58
2024/01/31 04:11:53;;;;;;;;;;;;;;;-8.39;100.00;99169.92;110263;1241;71840;-59
2024/01/31 04:14:22;;;;;;;;;;;;;;;-8.41;100.00;99167.33;110360;1238;69170;-60
2024/01/31 04:16:51;;;;;;;;;;;;;;;-8.41;100.00;99165.45;110386;1240;69184;-60
2024/01/31 04:19:20;;;;;;;;;;;;;;;-8.41;100.00;99169.52;110333;1238;59738;-59
2024/01/31 04:21:49;;;;;;;;;;;;;;;-8.41;100.00;99169.02;110392;1240;59620;-60
2024/01/31 04:24:17;;;;;;;;;;;;;;;-8.39;100.00;99170.09;110394;1240;71346;-59
2024/01/31 04:26:46;;;;;;;;;;;;;;;-8.37;100.00;99170.99;110383;1240;69196;-59
2024/01/31 04:29:15;;;;;;;;;;;;;;;-8.36;100.00;99168.33;110359;1240;69591;-59
2024/01/31 04:31:44;;;;;;;;;;;;;;;-8.35;100.00;99170.20;110302;1240;59748;-59
2024/01/31 04:34:13;;;;;;;;;;;;;;;-8.35;100.00;99171.88;110382;1240;59684;-60
2024/01/31 04:36:42;;;;;;;;;;;;;;;-8.35;100.00;99172.90;110334;1239;71320;-59
2024/01/31 04:39:11;;;;;;;;;;;;;;;-8.36;100.00;99170.17;110357;1240;69046;-60
2024/01/31 04:41:40;;;;;;;;;;;;;;;-8.34;100.00;99167.34;110353;1241;69559;-59
2024/01/31 04:44:09;;;;;;;;;;;;;;;-8.31;100.00;99170.47;110350;1240;59661;-59
2024/01/31 04:46:38;;;;;;;;;;;;;;;-8.31;100.00;99169.80;110342;1240;59590;-58
2024/01/31 04:49:06;;;;;;;;;;;;;;;-8.30;100.00;99167.30;110347;1240;72146;-59
2024/01/31 04:51:39;;;;;;;;;;;;;;;-8.28;100.00;99170.58;110377;1238;69206;-59
2024/01/31 04:54:08;;;;;;;;;;;;;;;-8.27;100.00;99170.95;110341;1238;69229;-59
2024/01/31 04:56:37;;;;;;;;;;;;;;;-8.29;100.00;99167.99;110350;1239;59630;-60
2024/01/31 04:59:06;;;;;;;;;;;;;;;-8.28;100.00;99170.04;110398;1239;59654;-59
2024/01/31 05:01:35;;;;;;;;;;;;;;;-8.29;100.00;99169.85;110377;1241;71974;-59
2024/01/31 05:04:04;;;;;;;;;;;;;;;-8.29;100.00;99171.89;110377;1238;69220;-58
2024/01/31 05:06:33;;;;;;;;;;;;;;;-8.30;100.00;99173.05;110357;1241;69070;-60
2024/01/31 05:09:03;;;;;;;;;;;;;;;-8.35;100.00;99171.72;110342;1240;59814;-59
2024/01/31 05:11:31;;;;;;;;;;;;;;;-8.43;100.00;99177.24;110394;1241;59655;-58
2024/01/31 05:14:00;;;;;;;;;;;;;;;-8.52;100.00;99177.00;110358;1238;71906;-59
2024/01/31 05:16:29;;;;;;;;;;;;;;;-8.55;100.00;99181.10;110380;1240;69069;-59
2024/01/31 05:18:58;;;;;;;;;;;;;;;-8.57;100.00;99178.16;110450;1238;69066;-62
2024/01/31 05:21:28;;;;;;;;;;;;;;;-8.56;100.00;99180.04;110548;1241;59852;-61
2024/01/31 05:23:57;;;;;;;;;;;;;;;-8.56;100.00;99181.23;110446;1240;59685;-59
2024/01/31 05:26:26;;;;;;;;;;;;;;;-8.57;100.00;99184.60;110494;1241;72333;-60
2024/01/31 05:28:54;;;;;;;;;;;;;;;-8.59;100.00;99179.95;110369;1238;69160;-60
2024/01/31 05:31:23;;;;;;;;;;;;;;;-8.60;100.00;99179.58;110304;1241;69059;-60
2024/01/31 05:33:52;;;;;;;;;;;;;;;-8.62;100.00;99180.71;110401;1239;59681;-60
2024/01/31 05:36:22;;;;;;;;;;;;;;;-8.62;100.00;99182.39;110490;1241;59725;-61
2024/01/31 05:38:50;;;;;;;;;;;;;;;-8.64;100.00;99180.33;110485;1240;71346;-61
2024/01/31 05:41:19;;;;;;;;;;;;;;;-8.66;100.00;99180.75;110357;1240;69643;-60
2024/01/31 05:43:48;;;;;;;;;;;;;;;-8.67;100.00;99177.35;110408;1240;69212;-60
2024/01/31 05:46:17;;;;;;;;;;;;;;;-8.69;100.00;99176.24;110535;1241;59749;-60
2024/01/31 05:48:47;;;;;;;;;;;;;;;-8.69;100.00;99176.59;110453;1241;59672;-61
2024/01/31 05:51:16;;;;;;;;;;;;;;;-8.70;100.00;99175.73;110461;1239;71960;-61
2024/01/31 05:53:45;;;;;;;;;;;;;;;-8.70;100.00;99177.26;110435;1240;69217;-61
2024/01/31 05:56:15;;;;;;;;;;;;;;;-8.70;100.00;99179.27;110311;1238;69444;-61
2024/01/31 05:58:44;;;;;;;;;;;;;;;-8.69;100.00;99181.48;110431;1241;59739;-61
2024/01/31 06:01:13;;;;;;;;;;;;;;;-8.67;100.00;99178.38;110420;1239;59712;-61
2024/01/31 06:03:42;;;;;;;;;;;;;;;-8.63;100.00;99177.81;110397;1240;72080;-60
2024/01/31 06:06:11;;;;;;;;;;;;;;;-8.59;100.00;99176.75;110380;1240;69726;-61
2024/01/31 06:08:40;;;;;;;;;;;;;;;-8.54;100.00;99183.52;110421;1247;69831;-61
2024/01/31 06:11:10;;;;;;;;;;;;;;;-8.50;100.00;99184.48;110383;1241;59737;-60
2024/01/31 06:13:39;;;;;;;;;;;;;;;-8.45;100.00;99184.80;110514;1240;59644;-61
2024/01/31 06:16:10;;;;;;;;;;;;;;;-8.39;100.00;99180.23;110289;1239;71971;-61
2024/01/31 06:18:39;;;;;;;;;;;;;;;-8.35;100.00;99178.49;110402;1238;69071;-61
2024/01/31 06:21:08;;;;;;;;;;;;;;;-8.28;100.00;99178.34;110299;1240;69184;-60
2024/01/31 06:23:36;;;;;;;;;;;;;;;-8.24;100.00;99176.79;110325;1241;59732;-61
2024/01/31 06:26:05;;;;;;;;;;;;;;;-8.18;100.00;99175.24;110338;1247;59675;-61
2024/01/31 06:28:38;;;;;;;;;;;;;;;-8.13;100.00;99173.39;110332;1238;71425;-61
2024/01/31 06:31:24;;;;;;;;;;;;;;;-8.07;100.00;99172.70;110337;1238;69785;-61
2024/01/31 06:33:54;;;;;;;;;;;;;;;-8.00;100.00;99172.23;110439;1240;69714;-61
2024/01/31 06:36:22;;;;;;;;;;;;;;;-7.94;100.00;99171.04;110387;1242;59773;-60
2024/01/31 06:38:51;;;;;;;;;;;;;;;-7.88;100.00;99169.52;110379;1240;60053;-60
2024/01/31 06:41:20;;;;;;;;;;;;;;;-7.78;100.00;99169.97;110366;1241;71299;-60
2024/01/31 06:43:49;;;;;;;;;;;;;;;-7.68;100.00;99171.77;110428;1241;68808;-60
2024/01/31 06:46:18;;;;;;;;;;;;;;;-7.56;100.00;99171.77;110382;1248;69828;-62
2024/01/31 06:48:47;;;;;;;;;;;;;;;-7.47;100.00;99169.14;110351;1240;59747;-62
2024/01/31 06:51:16;;;;;;;;;;;;;;;-7.36;100.00;99167.89;110335;1241;60156;-61
2024/01/31 06:53:45;;;;;;;;;;;;;;;-7.26;100.00;99168.33;110412;1241;71924;-61
2024/01/31 06:56:17;;;;;;;;;;;;;;;-7.16;100.00;99168.26;110529;1239;69140;-60
2024/01/31 06:58:46;;;;;;;;;;;;;;;-7.04;100.00;99164.15;110260;1241;69189;-61
2024/01/31 07:01:18;;;;;;;;;;;;;;;-6.88;100.00;99159.11;110244;1241;59730;-61
2024/01/31 07:03:47;;;;;;;;;;;;;;;-6.57;100.00;99159.34;110464;1238;59733;-61
2024/01/31 07:06:16;;;;;;;;;;;;;;;-6.10;100.00;99157.48;110336;1238;71331;-61
2024/01/31 07:08:45;;;;;;;;;;;;;;;-5.59;100.00;99156.11;110340;1240;69766;-62
2024/01/31 07:11:14;;;;;;;;;;;;;;;-5.01;100.00;99158.18;110317;1241;69942;-61
2024/01/31 07:13:43;;;;;;;;;;;;;;;-4.44;100.00;99156.88;110334;1241;59680;-61
2024/01/31 07:16:12;;;;;;;;;;;;;;;-3.90;100.00;99161.02;110366;1241;59691;-61
2024/01/31 07:18:43;;;;;;;;;;;;;;;-3.40;100.00;99164.16;110378;1241;71978;-62
2024/01/31 07:21:22;;;;;;;;;;;;;;;-2.68;100.00;99155.96;110394;1241;69701;-61
2024/01/31 07:23:52;;;;;;;;;;;;;;;-2.05;95.37;99156.23;110445;1240;68855;-61
2024/01/31 07:26:22;;;;;;;;;;;;;;;-1.61;90.02;99154.04;110421;1241;59806;-62
2024/01/31 07:28:51;;;;;;;;;;;;;;;-1.05;91.46;99154.86;110454;1241;59671;-61
2024/01/31 07:31:20;;;;;;;;;;;;;;;-0.78;84.26;99148.20;110383;1240;71057;-61
2024/01/31 07:33:48;;;;;;;;;;;;;;;-0.29;85.64;99149.39;110406;1241;69649;-61
2024/01/31 07:36:19;;;;;;;;;;;;;;;-0.01;76.79;99147.08;110321;1241;69087;-61
2024/01/31 07:38:48;;;;;;;;;;;;;;;0.40;80.08;99146.77;110351;1241;59662;-61
2024/01/31 07:41:16;;;;;;;;;;;;;;;0.77;80.28;99140.91;110371;1240;60046;-61
2024/01/31 07:43:47;;;;;;;;;;;;;;;0.98;76.66;99139.73;110411;1240;72115;-62
2024/01/31 07:46:16;;;;;;;;;;;;;;;0.96;70.58;99132.20;110432;1240;69732;-61
2024/01/31 07:48:45;;;;;;;;;;;;;;;1.23;69.49;99136.98;110338;1241;70220;-62
2024/01/31 07:51:15;;;;;;;;;;;;;;;1.16;68.87;99136.88;110477;1241;59725;-62
2024/01/31 07:53:44;;;;;;;;;;;;;;;1.59;69.07;99136.84;110373;1239;59681;-62
2024/01/31 07:56:13;;;;;;;;;;;;;;;2.15;65.70;99135.75;110436;1240;71748;-62
2024/01/31 07:58:42;;;;;;;;;;;;;;;2.49;64.26;99137.06;110429;1239;69593;-62
2024/01/31 08:01:11;;;;;;;;;;;;;;;2.55;64.03;99133.54;110449;1241;68891;-63
2024/01/31 08:03:43;;;;;;;;;;;;;;;2.66;64.38;99130.30;110402;1240;59750;-63
2024/01/31 08:06:12;;;;;;;;;;;;;;;2.95;63.07;99126.09;110400;1240;59708;-62
2024/01/31 08:08:45;;;;;;;;;;;;;;;3.62;61.08;99128.62;110506;1241;71005;-62
2024/01/31 08:11:14;;;;;;;;;;;;;;;3.64;60.21;99127.20;110349;1241;69858;-62
2024/01/31 08:13:42;;;;;;;;;;;;;;;3.82;59.15;99129.49;110369;1237;69224;-62
2024/01/31 08:16:12;;;;;;;;;;;;;;;4.21;59.34;99129.95;110385;1240;59666;-63
2024/01/31 08:18:41;;;;;;;;;;;;;;;4.65;57.53;99121.77;110492;1238;59698;-61
2024/01/31 08:21:11;;;;;;;;;;;;;;;5.03;56.29;99119.71;110318;1237;71826;-61
2024/01/31 08:23:40;;;;;;;;;;;;;;;4.62;55.60;99118.55;110371;1239;69644;-62
2024/01/31 08:26:15;;;;;;;;;;;;;;;5.15;55.62;99115.28;110394;1242;69232;-62
2024/01/31 08:28:44;;;;;;;;;;;;;;;5.11;54.85;99118.66;110426;1239;59725;-61
2024/01/31 08:31:13;;;;;;;;;;;;;;;4.98;54.90;99117.94;110499;1238;59670;-62
2024/01/31 08:33:43;;;;;;;;;;;;;;;4.68;55.58;99117.93;110545;1237;71922;-61
2024/01/31 08:36:12;;;;;;;;;;;;;;;5.37;54.19;99113.54;110474;1237;68096;-62
2024/01/31 08:38:43;;;;;;;;;;;;;;;5.27;53.75;99114.30;110481;1239;69740;-62
2024/01/31 08:41:12;;;;;;;;;;;;;;;5.72;52.33;99112.31;110515;1241;59722;-62
2024/01/31 08:43:41;;;;;;;;;;;;;;;5.83;52.13;99110.83;110480;1237;59672;-64
2024/01/31 08:46:11;;;;;;;;;;;;;;;6.60;50.38;99106.58;110482;1238;71782;-62
2024/01/31 08:48:40;;;;;;;;;;;;;;;6.38;50.34;99106.52;110495;1247;69723;-62
2024/01/31 08:51:09;;;;;;;;;;;;;;;6.88;49.02;99106.45;110504;1242;69264;-62
2024/01/31 08:53:38;;;;;;;;;;;;;;;7.44;48.63;99106.20;110492;1241;59668;-62
2024/01/31 08:56:07;;;;;;;;;;;;;;;7.81;47.12;99106.14;110584;1240;59987;-63
2024/01/31 08:58:37;;;;;;;;;;;;;;;7.47;47.36;99099.84;110501;1237;71987;-63
2024/01/31 09:01:07;;;;;;;;;;;;;;;8.02;46.55;99100.70;110445;1240;69094;-62
2024/01/31 09:03:36;;;;;;;;;;;;;;;8.69;44.49;99089.61;110531;1240;69307;-62
2024/01/31 09:06:05;;;;;;;;;;;;;;;8.58;44.79;99089.30;110473;1241;59703;-61
2024/01/31 09:08:34;;;;;;;;;;;;;;;8.32;44.91;99092.53;110371;1241;59667;-63
2024/01/31 09:11:03;;;;;;;;;;;;;;;9.24;44.78;99083.44;110367;1242;70257;-61
2024/01/31 09:13:32;;;;;;;;;;;;;;;9.33;43.53;99077.98;110424;1242;69672;-62
2024/01/31 09:16:01;;;;;;;;;;;;;;;9.44;43.20;99075.44;110402;1242;69706;-64
2024/01/31 09:18:30;;;;;;;;;;;;;;;9.67;43.28;99069.95;110380;1240;59690;-60
2024/01/31 09:21:00;;;;;;;;;;;;;;;9.70;42.34;99064.42;110428;1241;59753;-61
2024/01/31 09:23:29;;;;;;;;;;;;;;;9.42;42.83;99062.67;110407;1238;72287;-61
2024/01/31 09:25:58;;;;;;;;;;;;;;;9.63;42.96;99056.57;110422;1237;69222;-61
2024/01/31 09:28:27;;;;;;;;;;;;;;;9.82;42.55;99050.84;110422;1239;69301;-62
2024/01/31 09:30:56;;;;;;;;;;;;;;;9.92;41.66;99044.66;110360;1238;59754;-63
2024/01/31 09:33:25;;;;;;;;;;;;;;;10.50;41.28;99040.66;110438;1237;59728;-61
2024/01/31 09:35:53;;;;;;;;;;;;;;;10.38;40.99;99038.10;110404;1242;71316;-62
2024/01/31 09:38:25;;;;;;;;;;;;;;;10.03;40.81;99033.23;110438;1240;69705;-61
2024/01/31 09:40:54;;;;;;;;;;;;;;;9.63;41.57;99029.52;110361;1241;70168;-63
2024/01/31 09:43:23;;;;;;;;;;;;;;;10.51;40.79;99022.83;110414;1241;60067;-62
2024/01/31 09:45:53;;;;;;;;;;;;;;;10.81;40.17;99021.23;110411;1241;59679;-62
2024/01/31 09:48:22;;;;;;;;;;;;;;;11.35;38.57;99020.52;110400;1240;70469;-61
2024/01/31 09:50:51;;;;;;;;;;;;;;;11.10;38.24;99018.79;110423;1240;68837;-62
2024/01/31 09:53:22;;;;;;;;;;;;;;;11.58;39.03;99017.75;110443;1237;69070;-64
2024/01/31 09:55:55;;;;;;;;;;;;;;;10.36;39.80;99011.46;110432;1240;59669;-62
2024/01/31 09:58:23;;;;;;;;;;;;;;;9.79;40.16;99010.26;110415;1240;59672;-62
2024/01/31 10:00:53;;;;;;;;;;;;;;;10.89;40.69;99008.81;110533;1242;70659;-62
2024/01/31 10:03:26;;;;;;;;;;;;;;;11.93;38.28;99005.80;110442;1241;68815;-62
2024/01/31 10:05:55;;;;;;;;;;;;;;;11.67;36.92;99004.52;110489;1241;68824;-62
2024/01/31 10:08:27;;;;;;;;;;;;;;;12.21;37.70;99006.04;110457;1241;59747;-62
2024/01/31 10:10:56;;;;;;;;;;;;;;;11.29;37.62;99008.54;110435;1240;59730;-62
2024/01/31 10:13:25;;;;;;;;;;;;;;;10.70;39.03;99010.71;110460;1239;70901;-62
2024/01/31 10:15:55;;;;;;;;;;;;;;;11.75;37.12;99009.17;110470;1241;69703;-62
2024/01/31 10:18:27;;;;;;;;;;;;;;;10.39;38.33;99004.91;110241;1240;69878;-62
2024/01/31 10:20:56;;;;;;;;;;;;;;;10.52;38.90;99002.55;110300;1240;59761;-62
2024/01/31 10:23:25;;;;;;;;;;;;;;;10.78;37.59;98996.09;110297;1239;60088;-62
2024/01/31 10:25:55;;;;;;;;;;;;;;;11.18;37.36;98993.08;110340;1241;71846;-63
2024/01/31 10:28:24;;;;;;;;;;;;;;;11.79;36.59;98986.23;110412;1240;68599;-62
2024/01/31 10:30:53;;;;;;;;;;;;;;;12.20;35.17;98978.70;110375;1241;68365;-63
2024/01/31 10:33:23;;;;;;;;;;;;;;;13.16;35.86;98971.63;110412;1241;59707;-63
2024/01/31 10:35:52;;;;;;;;;;;;;;;13.25;34.20;98965.23;110470;1240;59696;-63
2024/01/31 10:38:24;;;;;;;;;;;;;;;13.38;34.35;98963.90;110455;1241;71859;-63
2024/01/31 10:40:55;;;;;;;;;;;;;;;13.92;34.64;98958.35;110451;1241;69790;-63
2024/01/31 10:43:25;;;;;;;;;;;;;;;14.27;33.97;98953.22;110402;1240;69245;-62
2024/01/31 10:45:54;;;;;;;;;;;;;;;14.88;33.99;98950.69;110525;1239;59679;-60
2024/01/31 10:48:23;;;;;;;;;;;;;;;15.04;33.32;98949.61;110569;1242;59679;-63
2024/01/31 10:50:55;;;;;;;;;;;;;;;15.08;32.67;98947.76;110472;1241;71942;-63
2024/01/31 10:53:25;;;;;;;;;;;;;;;14.99;32.61;98945.67;110487;1241;69618;-63
2024/01/31 10:55:56;;;;;;;;;;;;;;;14.94;31.82;98946.73;110497;1243;68408;-64
2024/01/31 10:58:26;;;;;;;;;;;;;;;13.72;32.62;98940.48;110568;1241;59660;-62
2024/01/31 11:00:54;;;;;;;;;;;;;;;14.32;33.09;98939.23;110546;1240;60093;-62
2024/01/31 11:03:26;;;;;;;;;;;;;;;15.08;32.40;98937.92;110494;1239;72304;-62
2024/01/31 11:05:55;;;;;;;;;;;;;;;14.92;31.27;98936.73;110403;1238;69797;-62
2024/01/31 11:08:26;;;;;;;;;;;;;;;15.75;31.52;98930.34;110487;1242;69660;-62
2024/01/31 11:10:55;;;;;;;;;;;;;;;16.19;31.95;98925.65;110549;1239;59692;-62
2024/01/31 11:13:24;;;;;;;;;;;;;;;16.51;30.36;98925.67;110432;1241;59676;-62
2024/01/31 11:15:54;;;;;;;;;;;;;;;15.76;29.76;98920.73;109949;1237;670652;-64
2024/01/31 11:18:24;;;;;;;;;;;;;;;16.41;30.15;98917.39;110424;1241;68393;-61
2024/01/31 11:20:55;;;;;;;;;;;;;;;16.94;30.25;98913.14;110387;1241;69342;-63
2024/01/31 11:23:30;;;;;;;;;;;;;;;16.31;29.48;98909.61;110425;1239;59760;-62
2024/01/31 11:26:01;;;;;;;;;;;;;;;15.99;29.76;98904.44;110400;1242;59669;-62
2024/01/31 11:28:31;;;;;;;;;;;;;;;16.43;30.70;98901.05;110364;1241;71831;-62
2024/01/31 11:31:01;;;;;;;;;;;;;;;16.94;30.08;98898.19;110341;1241;69295;-62
2024/01/31 11:33:31;;;;;;;;;;;;;;;16.84;29.06;98893.98;110476;1238;70205;-62
2024/01/31 11:36:00;;;;;;;;;;;;;;;16.28;28.71;98890.30;110267;1240;59756;-62
2024/01/31 11:38:29;;;;;;;;;;;;;;;15.72;29.68;98886.09;110265;1241;59683;-63
2024/01/31 11:40:58;;;;;;;;;;;;;;;14.25;30.80;98883.84;110471;1239;71903;-63
2024/01/31 11:43:27;;;;;;;;;;;;;;;13.28;32.14;98881.65;110499;1240;69638;-62
2024/01/31 11:45:56;;;;;;;;;;;;;;;14.84;31.39;98879.85;110299;1240;69188;-64
2024/01/31 11:48:26;;;;;;;;;;;;;;;15.67;30.52;98871.36;110435;1240;59705;-62
2024/01/31 11:50:57;;;;;;;;;;;;;;;15.07;30.31;98878.52;110469;1241;60098;-62
2024/01/31 11:53:26;;;;;;;;;;;;;;;15.33;30.70;98873.54;110456;1239;72431;-63
2024/01/31 11:55:55;;;;;;;;;;;;;;;15.42;29.72;98870.80;110460;1240;70188;-62
2024/01/31 11:58:24;;;;;;;;;;;;;;;15.28;29.75;98869.48;110427;1240;69289;-61
2024/01/31 12:00:54;;;;;;;;;;;;;;;15.16;30.40;98867.85;110432;1238;59739;-61
2024/01/31 12:03:25;;;;;;;;;;;;;;;14.65;30.69;98865.15;110500;1241;59732;-62
2024/01/31 12:05:56;;;;;;;;;;;;;;;14.63;30.80;98859.65;110348;1238;71993;-62
2024/01/31 12:08:27;;;;;;;;;;;;;;;14.39;31.26;98855.13;110447;1239;69663;-63
2024/01/31 12:10:56;;;;;;;;;;;;;;;14.61;31.46;98849.43;110427;1242;69868;-62
2024/01/31 12:13:26;;;;;;;;;;;;;;;14.67;30.99;98852.25;110432;1242;60093;-63
2024/01/31 12:15:55;;;;;;;;;;;;;;;14.06;31.58;98850.70;110453;1240;59683;-64
2024/01/31 12:18:24;;;;;;;;;;;;;;;14.05;31.72;98851.49;110428;1241;71928;-63
2024/01/31 12:21:04;;;;;;;;;;;;;;;14.11;31.85;98850.92;110477;1240;69086;-62
2024/01/31 12:23:33;;;;;;;;;;;;;;;13.37;33.25;98846.63;110480;1241;68117;-64
2024/01/31 12:26:02;;;;;;;;;;;;;;;14.34;31.91;98846.45;110288;1239;60287;-63
2024/01/31 12:28:32;;;;;;;;;;;;;;;13.79;32.10;98842.83;110509;1241;59739;-64
2024/01/31 12:31:00;;;;;;;;;;;;;;;14.19;31.89;98840.94;110288;1241;71163;-63
2024/01/31 12:33:29;;;;;;;;;;;;;;;13.92;32.04;98842.14;110420;1242;68927;-63
2024/01/31 12:35:58;;;;;;;;;;;;;;;13.97;32.23;98838.88;110347;1241;69114;-63
2024/01/31 12:38:27;;;;;;;;;;;;;;;14.14;32.00;98842.35;110365;1241;59665;-63
2024/01/31 12:40:56;;;;;;;;;;;;;;;14.67;31.63;98840.13;110458;1241;59664;-63
2024/01/31 12:43:25;;;;;;;;;;;;;;;14.70;31.87;98837.63;110396;1241;71487;-63